createdAt,value
2022-12-06T00:00:43.867Z,3.76
2022-12-06T00:01:44.036Z,3.68
2022-12-06T00:02:43.888Z,3.73
2022-12-06T00:03:43.943Z,3.69
2022-12-06T00:04:43.848Z,3.74
2022-12-06T00:05:46.370Z,3.65
2022-12-06T00:06:44.810Z,3.69
2022-12-06T00:07:43.900Z,3.68
2022-12-06T00:08:43.887Z,3.69
2022-12-06T00:09:43.926Z,3.69
2022-12-06T00:10:43.777Z,3.70
2022-12-06T00:11:44.409Z,3.68
2022-12-06T00:12:43.761Z,3.69
2022-12-06T00:13:43.791Z,3.70
2022-12-06T00:14:44.387Z,3.73
2022-12-06T00:15:44.629Z,3.63
2022-12-06T00:16:43.802Z,3.56
2022-12-06T00:17:43.963Z,3.65
2022-12-06T00:18:43.708Z,3.53
2022-12-06T00:19:43.788Z,3.65
2022-12-06T00:20:43.754Z,3.60
2022-12-06T00:21:43.897Z,3.70
2022-12-06T00:22:43.702Z,3.66
2022-12-06T00:23:43.726Z,3.60
2022-12-06T00:24:44.410Z,3.58
2022-12-06T00:25:43.672Z,3.60
2022-12-06T00:26:43.724Z,3.60
2022-12-06T00:27:43.727Z,3.69
2022-12-06T00:28:43.892Z,3.69
2022-12-06T00:29:43.686Z,3.63
2022-12-06T00:30:43.644Z,3.62
2022-12-06T00:31:44.831Z,3.69
2022-12-06T00:32:43.649Z,3.68
2022-12-06T00:33:43.667Z,3.66
2022-12-06T00:34:44.449Z,3.58
2022-12-06T00:35:43.620Z,3.63
2022-12-06T00:36:44.388Z,3.60
2022-12-06T00:37:43.578Z,3.66
2022-12-06T00:38:43.587Z,3.66
2022-12-06T00:39:43.588Z,3.62
2022-12-06T00:40:43.593Z,3.62
2022-12-06T00:41:43.577Z,3.59
2022-12-06T00:42:43.549Z,3.65
2022-12-06T00:43:43.511Z,3.69
2022-12-06T00:44:43.525Z,3.69
2022-12-06T00:45:43.563Z,3.56
2022-12-06T00:46:44.138Z,3.65
2022-12-06T00:47:43.536Z,3.60
2022-12-06T00:48:43.615Z,3.65
2022-12-06T00:49:43.497Z,3.68
2022-12-06T00:50:43.504Z,3.60
2022-12-06T00:51:43.464Z,3.56
2022-12-06T00:52:43.564Z,3.65
2022-12-06T00:53:43.503Z,3.66
2022-12-06T00:54:43.450Z,3.66
2022-12-06T00:55:43.492Z,3.62
2022-12-06T00:56:43.523Z,3.62
2022-12-06T00:57:43.468Z,3.55
2022-12-06T00:58:43.451Z,3.66
2022-12-06T00:59:43.421Z,3.55
2022-12-06T01:00:43.414Z,3.58
2022-12-06T01:01:43.546Z,3.60
2022-12-06T01:02:43.466Z,3.51
2022-12-06T01:03:44.599Z,3.51
2022-12-06T01:04:43.406Z,3.48
2022-12-06T01:05:43.422Z,3.51
2022-12-06T01:06:43.388Z,3.44
2022-12-06T01:07:43.469Z,3.59
2022-12-06T01:08:43.413Z,3.44
2022-12-06T01:09:43.425Z,3.50
2022-12-06T01:10:43.419Z,3.48
2022-12-06T01:11:43.358Z,3.42
2022-12-06T01:12:43.343Z,3.41
2022-12-06T01:13:43.488Z,3.42
2022-12-06T01:14:43.347Z,3.53
2022-12-06T01:15:43.304Z,3.53
2022-12-06T01:16:43.355Z,3.53
2022-12-06T01:17:43.320Z,3.47
2022-12-06T01:18:43.371Z,3.55
2022-12-06T01:19:43.335Z,3.47
2022-12-06T01:20:43.249Z,3.50
2022-12-06T01:21:43.238Z,3.56
2022-12-06T01:22:43.242Z,3.55
2022-12-06T01:23:43.249Z,3.55
2022-12-06T01:24:43.255Z,3.55
2022-12-06T01:25:43.222Z,3.55
2022-12-06T01:26:43.257Z,3.48
2022-12-06T01:27:43.203Z,3.51
2022-12-06T01:28:43.188Z,3.58
2022-12-06T01:29:43.179Z,3.55
2022-12-06T01:30:43.258Z,3.55
2022-12-06T01:31:43.154Z,3.48
2022-12-06T01:32:43.134Z,3.59
2022-12-06T01:33:43.141Z,3.56
2022-12-06T01:34:45.366Z,3.48
2022-12-06T01:35:43.174Z,3.58
2022-12-06T01:36:43.200Z,3.47
2022-12-06T01:37:43.115Z,3.50
2022-12-06T01:38:43.147Z,3.58
2022-12-06T01:39:43.333Z,3.53
2022-12-06T01:40:43.156Z,3.59
2022-12-06T01:41:43.165Z,3.62
2022-12-06T01:42:43.063Z,3.42
2022-12-06T01:43:43.180Z,3.60
2022-12-06T01:44:43.066Z,3.56
2022-12-06T01:45:43.124Z,3.56
2022-12-06T01:46:43.159Z,3.53
2022-12-06T01:47:43.061Z,3.53
2022-12-06T01:48:43.031Z,3.56
2022-12-06T01:49:43.003Z,3.51
2022-12-06T01:50:43.015Z,3.58
2022-12-06T01:51:43.022Z,3.44
2022-12-06T01:52:42.997Z,3.55
2022-12-06T01:53:42.971Z,3.55
2022-12-06T01:54:42.982Z,3.48
2022-12-06T01:55:42.963Z,3.48
2022-12-06T01:56:43.051Z,3.55
2022-12-06T01:57:42.980Z,3.53
2022-12-06T01:58:43.580Z,3.55
2022-12-06T01:59:42.977Z,3.50
2022-12-06T02:00:42.902Z,3.55
2022-12-06T02:01:42.995Z,3.48
2022-12-06T02:02:42.972Z,3.41
2022-12-06T02:03:43.605Z,3.58
2022-12-06T02:04:45.594Z,3.50
2022-12-06T02:05:42.893Z,3.44
2022-12-06T02:06:42.881Z,3.55
2022-12-06T02:07:42.963Z,3.51
2022-12-06T02:08:42.876Z,3.59
2022-12-06T02:09:42.884Z,3.56
2022-12-06T02:10:42.918Z,3.51
2022-12-06T02:11:42.839Z,3.47
2022-12-06T02:12:42.838Z,3.59
2022-12-06T02:13:42.857Z,3.60
2022-12-06T02:14:44.579Z,3.55
2022-12-06T02:15:42.797Z,3.47
2022-12-06T02:16:44.636Z,3.55
2022-12-06T02:17:42.790Z,3.59
2022-12-06T02:18:42.792Z,3.48
2022-12-06T02:19:42.787Z,3.53
2022-12-06T02:20:42.773Z,3.44
2022-12-06T02:21:42.756Z,3.55
2022-12-06T02:22:42.751Z,3.53
2022-12-06T02:23:42.738Z,3.62
2022-12-06T02:24:42.769Z,3.59
2022-12-06T02:25:43.613Z,3.47
2022-12-06T02:26:43.722Z,3.53
2022-12-06T02:27:42.704Z,3.56
2022-12-06T02:28:42.799Z,3.47
2022-12-06T02:29:43.019Z,3.47
2022-12-06T02:30:43.655Z,3.51
2022-12-06T02:31:43.042Z,3.51
2022-12-06T02:32:42.665Z,3.55
2022-12-06T02:33:42.682Z,3.62
2022-12-06T02:34:44.076Z,3.40
2022-12-06T02:35:42.646Z,3.50
2022-12-06T02:36:42.665Z,3.56
2022-12-06T02:37:42.633Z,3.60
2022-12-06T02:38:43.568Z,3.50
2022-12-06T02:39:42.624Z,3.45
2022-12-06T02:40:42.623Z,3.58
2022-12-06T02:41:42.617Z,3.51
2022-12-06T02:42:42.601Z,3.62
2022-12-06T02:43:42.595Z,3.55
2022-12-06T02:44:42.585Z,3.48
2022-12-06T02:45:42.583Z,3.48
2022-12-06T02:46:42.733Z,3.62
2022-12-06T02:47:42.838Z,3.44
2022-12-06T02:48:42.579Z,3.50
2022-12-06T02:49:42.565Z,3.51
2022-12-06T02:50:42.536Z,3.59
2022-12-06T02:51:42.519Z,3.44
2022-12-06T02:52:42.592Z,3.51
2022-12-06T02:53:42.555Z,3.50
2022-12-06T02:54:42.523Z,3.48
2022-12-06T02:55:42.520Z,3.42
2022-12-06T02:56:42.497Z,3.50
2022-12-06T02:57:42.488Z,3.41
2022-12-06T02:58:42.512Z,3.56
2022-12-06T02:59:42.502Z,3.45
2022-12-06T03:00:42.463Z,3.47
2022-12-06T03:01:42.579Z,3.44
2022-12-06T03:02:42.525Z,3.48
2022-12-06T03:03:42.595Z,3.50
2022-12-06T03:04:42.411Z,3.41
2022-12-06T03:05:43.450Z,3.48
2022-12-06T03:06:42.417Z,3.50
2022-12-06T03:07:42.488Z,3.44
2022-12-06T03:08:42.408Z,3.50
2022-12-06T03:09:42.392Z,3.40
2022-12-06T03:10:42.702Z,3.40
2022-12-06T03:11:42.374Z,3.45
2022-12-06T03:12:42.355Z,3.34
2022-12-06T03:13:42.356Z,3.32
2022-12-06T03:14:43.019Z,3.44
2022-12-06T03:15:42.421Z,3.42
2022-12-06T03:16:42.339Z,3.42
2022-12-06T03:17:42.363Z,3.45
2022-12-06T03:19:14.240Z,3.40
2022-12-06T03:19:42.336Z,3.44
2022-12-06T03:20:42.308Z,3.37
2022-12-06T03:21:42.287Z,3.41
2022-12-06T03:22:42.293Z,3.31
2022-12-06T03:23:42.292Z,3.42
2022-12-06T03:24:42.288Z,3.41
2022-12-06T03:25:42.272Z,3.37
2022-12-06T03:26:42.274Z,3.37
2022-12-06T03:27:42.288Z,3.36
2022-12-06T03:28:42.333Z,3.31
2022-12-06T03:29:42.255Z,3.41
2022-12-06T03:30:42.304Z,3.34
2022-12-06T03:31:42.266Z,3.36
2022-12-06T03:32:42.233Z,3.31
2022-12-06T03:33:42.227Z,3.40
2022-12-06T03:34:42.193Z,3.34
2022-12-06T03:35:42.193Z,3.37
2022-12-06T03:36:42.202Z,3.32
2022-12-06T03:37:42.226Z,3.37
2022-12-06T03:38:42.165Z,3.48
2022-12-06T03:39:42.186Z,3.36
2022-12-06T03:40:42.178Z,3.34
2022-12-06T03:41:42.196Z,3.32
2022-12-06T03:42:42.143Z,3.37
2022-12-06T03:43:42.130Z,3.31
2022-12-06T03:44:42.143Z,3.42
2022-12-06T03:45:42.166Z,3.41
2022-12-06T03:46:42.174Z,3.41
2022-12-06T03:47:42.113Z,3.26
2022-12-06T04:03:10.210Z,3.10
2022-12-06T04:04:10.256Z,3.08
2022-12-06T04:05:10.187Z,3.05
2022-12-06T04:06:10.203Z,3.18
2022-12-06T04:07:10.227Z,3.14
2022-12-06T04:08:11.540Z,3.11
2022-12-06T04:09:11.346Z,3.21
2022-12-06T04:10:11.285Z,3.14
2022-12-06T04:11:11.279Z,3.19
2022-12-06T04:12:11.367Z,3.18
2022-12-06T04:13:15.287Z,3.14
2022-12-06T04:14:12.303Z,3.19
2022-12-06T04:15:11.277Z,3.14
2022-12-06T04:16:11.285Z,3.21
2022-12-06T04:17:11.245Z,3.21
2022-12-06T04:18:11.260Z,3.13
2022-12-06T04:19:11.334Z,3.19
2022-12-06T04:20:11.231Z,3.21
2022-12-06T04:21:11.202Z,3.21
2022-12-06T04:22:11.204Z,3.25
2022-12-06T04:23:11.217Z,3.22
2022-12-06T04:24:11.179Z,3.14
2022-12-06T04:25:11.176Z,3.18
2022-12-06T04:26:11.160Z,3.21
2022-12-06T04:27:11.159Z,3.14
2022-12-06T04:28:11.166Z,3.14
2022-12-06T04:29:11.166Z,3.08
2022-12-06T04:30:11.223Z,3.13
2022-12-06T04:31:11.175Z,3.26
2022-12-06T04:32:11.136Z,3.22
2022-12-06T04:33:11.133Z,3.19
2022-12-06T04:34:11.147Z,3.11
2022-12-06T04:35:11.113Z,3.14
2022-12-06T04:36:11.098Z,3.18
2022-12-06T04:37:11.082Z,3.13
2022-12-06T04:38:11.070Z,3.14
2022-12-06T04:39:12.427Z,3.04
2022-12-06T04:40:11.055Z,3.13
2022-12-06T04:41:11.109Z,3.19
2022-12-06T04:42:11.044Z,3.18
2022-12-06T04:43:11.043Z,3.10
2022-12-06T04:44:11.043Z,3.19
2022-12-06T04:45:11.012Z,3.11
2022-12-06T04:46:11.079Z,3.18
2022-12-06T04:47:11.009Z,3.04
2022-12-06T04:48:11.007Z,3.13
2022-12-06T04:49:11.039Z,3.10
2022-12-06T04:50:11.019Z,3.05
2022-12-06T04:51:10.993Z,3.13
2022-12-06T04:52:11.010Z,3.11
2022-12-06T04:53:10.970Z,3.13
2022-12-06T04:54:10.947Z,2.98
2022-12-06T04:55:10.984Z,3.05
2022-12-06T04:56:10.973Z,2.98
2022-12-06T04:57:11.006Z,3.03
2022-12-06T04:58:10.924Z,2.97
2022-12-06T04:59:10.915Z,3.16
2022-12-06T05:00:10.906Z,3.03
2022-12-06T05:01:10.941Z,3.04
2022-12-06T05:02:11.421Z,3.00
2022-12-06T05:03:10.896Z,3.01
2022-12-06T05:04:10.979Z,2.95
2022-12-06T05:05:10.909Z,3.03
2022-12-06T05:06:10.881Z,3.03
2022-12-06T05:07:10.902Z,3.01
2022-12-06T05:08:10.942Z,3.07
2022-12-06T05:09:10.876Z,3.05
2022-12-06T05:10:10.869Z,2.93
2022-12-06T05:11:10.849Z,2.95
2022-12-06T05:12:10.900Z,3.01
2022-12-06T05:13:10.812Z,3.04
2022-12-06T05:14:10.809Z,3.08
2022-12-06T05:15:11.569Z,3.11
2022-12-06T05:16:10.892Z,3.11
2022-12-06T05:17:10.810Z,3.01
2022-12-06T05:18:10.779Z,2.97
2022-12-06T05:19:10.811Z,2.98
2022-12-06T05:20:10.799Z,2.95
2022-12-06T05:21:10.776Z,3.00
2022-12-06T05:22:10.770Z,3.00
2022-12-06T05:23:10.768Z,3.04
2022-12-06T05:24:10.768Z,3.08
2022-12-06T05:25:10.748Z,2.95
2022-12-06T05:26:10.737Z,3.00
2022-12-06T05:27:10.726Z,2.97
2022-12-06T05:28:10.734Z,3.03
2022-12-06T05:29:10.713Z,3.10
2022-12-06T05:30:10.714Z,3.00
2022-12-06T05:31:10.765Z,2.98
2022-12-06T05:32:10.719Z,3.03
2022-12-06T05:33:10.668Z,3.05
2022-12-06T05:34:10.683Z,3.00
2022-12-06T05:35:10.663Z,3.01
2022-12-06T05:36:10.740Z,3.04
2022-12-06T05:37:10.836Z,2.93
2022-12-06T05:38:10.697Z,3.01
2022-12-06T05:39:10.645Z,3.00
2022-12-06T05:40:11.039Z,2.90
2022-12-06T05:41:10.613Z,2.97
2022-12-06T05:42:13.391Z,2.92
2022-12-06T05:43:10.638Z,3.03
2022-12-06T05:44:10.587Z,3.05
2022-12-06T05:45:10.583Z,3.00
2022-12-06T05:46:10.640Z,3.04
2022-12-06T05:47:10.583Z,3.03
2022-12-06T05:48:10.564Z,3.03
2022-12-06T05:49:10.553Z,3.07
2022-12-06T05:50:10.541Z,3.03
2022-12-06T05:51:10.558Z,3.08
2022-12-06T05:52:10.527Z,3.04
2022-12-06T05:53:10.520Z,3.07
2022-12-06T05:54:10.525Z,3.05
2022-12-06T05:55:10.540Z,3.04
2022-12-06T05:56:10.516Z,3.03
2022-12-06T05:57:10.491Z,3.01
2022-12-06T05:58:10.503Z,3.04
2022-12-06T05:59:10.463Z,3.08
2022-12-06T06:00:10.515Z,2.98
2022-12-06T06:01:10.462Z,2.97
2022-12-06T06:02:10.575Z,2.95
2022-12-06T06:03:10.565Z,3.01
2022-12-06T06:04:10.436Z,2.97
2022-12-06T06:05:10.476Z,2.97
2022-12-06T06:06:10.416Z,3.00
2022-12-06T06:07:10.422Z,2.90
2022-12-06T06:08:10.475Z,2.97
2022-12-06T06:09:10.411Z,3.01
2022-12-06T06:10:10.380Z,2.95
2022-12-06T06:11:10.388Z,2.97
2022-12-06T06:12:12.612Z,3.00
2022-12-06T06:13:11.363Z,2.93
2022-12-06T06:14:10.351Z,2.93
2022-12-06T06:15:10.364Z,3.01
2022-12-06T06:16:10.404Z,2.98
2022-12-06T06:17:10.345Z,2.98
2022-12-06T06:18:10.329Z,2.90
2022-12-06T06:19:10.307Z,2.92
2022-12-06T06:20:10.328Z,3.01
2022-12-06T06:21:10.379Z,3.01
2022-12-06T06:22:10.318Z,2.90
2022-12-06T06:23:10.342Z,2.90
2022-12-06T06:24:10.305Z,2.93
2022-12-06T06:25:10.266Z,3.00
2022-12-06T06:26:10.296Z,2.97
2022-12-06T06:27:10.261Z,3.03
2022-12-06T06:28:10.302Z,2.97
2022-12-06T06:29:10.246Z,3.10
2022-12-06T06:30:10.262Z,3.04
2022-12-06T06:31:10.291Z,3.04
2022-12-06T06:32:10.302Z,2.93
2022-12-06T06:33:10.211Z,3.00
2022-12-06T06:34:10.233Z,2.95
2022-12-06T06:35:10.358Z,3.01
2022-12-06T06:36:10.195Z,2.98
2022-12-06T06:37:10.242Z,2.89
2022-12-06T06:38:10.184Z,3.01
2022-12-06T06:39:10.160Z,3.01
2022-12-06T06:40:10.159Z,3.01
2022-12-06T06:41:10.151Z,3.03
2022-12-06T06:42:10.179Z,3.01
2022-12-06T06:43:10.174Z,3.00
2022-12-06T06:44:10.136Z,3.05
2022-12-06T06:45:10.136Z,3.03
2022-12-06T06:46:10.190Z,2.98
2022-12-06T06:47:10.169Z,2.93
2022-12-06T06:48:10.121Z,3.04
2022-12-06T06:49:10.094Z,2.89
2022-12-06T06:50:10.093Z,2.98
2022-12-06T06:51:10.083Z,3.04
2022-12-06T06:52:10.071Z,3.01
2022-12-06T06:53:10.079Z,2.98
2022-12-06T06:54:10.075Z,3.01
2022-12-06T06:55:10.051Z,3.03
2022-12-06T06:56:10.106Z,2.90
2022-12-06T06:57:15.837Z,2.97
2022-12-06T06:58:12.028Z,2.93
2022-12-06T06:59:10.043Z,3.01
2022-12-06T07:00:10.041Z,3.01
2022-12-06T07:01:10.180Z,2.89
2022-12-06T07:02:10.048Z,2.95
2022-12-06T07:03:10.015Z,2.93
2022-12-06T07:04:09.979Z,2.86
2022-12-06T07:05:09.973Z,2.92
2022-12-06T07:06:09.985Z,2.90
2022-12-06T07:07:09.954Z,2.87
2022-12-06T07:08:10.083Z,2.93
2022-12-06T07:09:09.945Z,2.93
2022-12-06T07:10:09.945Z,2.95
2022-12-06T07:11:10.942Z,3.01
2022-12-06T07:12:09.915Z,2.90
2022-12-06T07:13:09.911Z,2.90
2022-12-06T07:14:09.964Z,3.00
2022-12-06T07:15:09.937Z,3.03
2022-12-06T07:16:09.911Z,3.00
2022-12-06T07:17:09.923Z,3.00
2022-12-06T07:18:09.865Z,3.01
2022-12-06T07:19:09.866Z,2.97
2022-12-06T07:20:09.880Z,2.98
2022-12-06T07:21:09.861Z,2.98
2022-12-06T07:22:09.860Z,3.01
2022-12-06T07:23:09.836Z,3.01
2022-12-06T07:24:09.852Z,3.05
2022-12-06T07:25:09.819Z,3.01
2022-12-06T07:26:09.806Z,2.98
2022-12-06T07:27:09.822Z,2.95
2022-12-06T07:28:09.789Z,3.08
2022-12-06T07:29:09.774Z,2.95
2022-12-06T07:30:14.433Z,3.08
2022-12-06T07:31:10.799Z,2.95
2022-12-06T07:32:09.809Z,2.95
2022-12-06T07:33:09.759Z,3.03
2022-12-06T07:34:09.740Z,2.86
2022-12-06T07:35:09.729Z,2.98
2022-12-06T07:36:12.396Z,3.01
2022-12-06T07:37:10.712Z,2.98
2022-12-06T07:38:09.744Z,2.89
2022-12-06T07:39:14.554Z,2.98
2022-12-06T07:40:11.721Z,3.01
2022-12-06T07:41:09.675Z,2.97
2022-12-06T07:42:09.673Z,2.98
2022-12-06T07:43:09.665Z,2.95
2022-12-06T07:44:09.726Z,3.03
2022-12-06T07:45:09.666Z,2.97
2022-12-06T07:46:09.687Z,2.97
2022-12-06T07:47:09.655Z,3.04
2022-12-06T07:48:09.632Z,3.03
2022-12-06T07:49:09.692Z,3.01
2022-12-06T07:50:15.971Z,2.89
2022-12-06T07:51:11.634Z,2.98
2022-12-06T07:52:09.626Z,2.92
2022-12-06T07:53:09.586Z,3.04
2022-12-06T07:54:09.591Z,3.03
2022-12-06T07:55:09.608Z,3.07
2022-12-06T07:56:09.590Z,3.01
2022-12-06T07:57:09.563Z,3.00
2022-12-06T07:58:09.564Z,3.04
2022-12-06T07:59:09.552Z,3.00
2022-12-06T08:00:09.558Z,3.04
2022-12-06T08:01:09.610Z,3.07
2022-12-06T08:02:09.656Z,3.03
2022-12-06T08:03:09.518Z,3.00
2022-12-06T08:04:09.598Z,3.13
2022-12-06T08:05:09.520Z,3.04
2022-12-06T08:06:09.502Z,3.05
2022-12-06T08:07:09.476Z,3.10
2022-12-06T08:08:09.530Z,3.04
2022-12-06T08:09:09.497Z,3.01
2022-12-06T08:10:09.505Z,3.07
2022-12-06T08:11:09.456Z,3.00
2022-12-06T08:12:09.450Z,3.03
2022-12-06T08:13:09.452Z,2.97
2022-12-06T08:14:09.455Z,2.97
2022-12-06T08:15:10.426Z,3.04
2022-12-06T08:16:09.489Z,3.08
2022-12-06T08:17:09.418Z,3.13
2022-12-06T08:18:09.425Z,3.11
2022-12-06T08:19:09.391Z,3.13
2022-12-06T08:20:09.398Z,3.05
2022-12-06T08:21:09.408Z,3.21
2022-12-06T08:22:09.380Z,3.10
2022-12-06T08:23:09.386Z,3.10
2022-12-06T08:24:09.406Z,3.11
2022-12-06T08:25:09.372Z,3.14
2022-12-06T08:26:09.360Z,3.11
2022-12-06T08:27:09.352Z,3.18
2022-12-06T08:28:09.340Z,3.13
2022-12-06T08:29:09.341Z,3.16
2022-12-06T08:30:09.322Z,3.21
2022-12-06T08:31:09.391Z,3.16
2022-12-06T08:32:09.322Z,3.13
2022-12-06T08:33:09.343Z,3.18
2022-12-06T08:34:09.303Z,3.13
2022-12-06T08:35:09.294Z,3.22
2022-12-06T08:36:09.269Z,3.08
2022-12-06T08:37:09.347Z,3.18
2022-12-06T08:38:09.335Z,3.13
2022-12-06T08:39:09.263Z,3.16
2022-12-06T08:40:09.258Z,3.13
2022-12-06T08:41:09.232Z,3.03
2022-12-06T08:42:09.250Z,3.11
2022-12-06T08:43:09.213Z,3.19
2022-12-06T08:44:09.218Z,3.08
2022-12-06T08:45:09.194Z,3.11
2022-12-06T08:46:09.274Z,3.07
2022-12-06T08:47:09.238Z,3.07
2022-12-06T08:48:09.191Z,3.11
2022-12-06T08:49:09.209Z,3.07
2022-12-06T08:50:09.246Z,3.19
2022-12-06T08:51:09.178Z,3.18
2022-12-06T08:52:09.178Z,3.13
2022-12-06T08:53:09.178Z,3.21
2022-12-06T08:54:09.144Z,3.16
2022-12-06T08:55:09.126Z,3.23
2022-12-06T08:56:09.118Z,3.16
2022-12-06T08:57:09.141Z,3.29
2022-12-06T08:58:09.157Z,3.22
2022-12-06T08:59:09.097Z,3.23
2022-12-06T09:00:09.114Z,3.16
2022-12-06T09:01:09.124Z,3.23
2022-12-06T09:02:09.129Z,3.22
2022-12-06T09:03:09.124Z,3.18
2022-12-06T09:04:09.200Z,3.21
2022-12-06T09:05:09.147Z,3.19
2022-12-06T09:06:09.048Z,3.18
2022-12-06T09:07:11.775Z,3.31
2022-12-06T09:08:10.130Z,3.19
2022-12-06T09:09:09.030Z,3.28
2022-12-06T09:10:09.013Z,3.32
2022-12-06T09:11:09.007Z,3.31
2022-12-06T09:12:08.998Z,3.25
2022-12-06T09:13:09.025Z,3.40
2022-12-06T09:14:09.018Z,3.29
2022-12-06T09:15:08.984Z,3.34
2022-12-06T09:16:09.020Z,3.23
2022-12-06T09:17:08.972Z,3.22
2022-12-06T09:18:08.951Z,3.37
2022-12-06T09:19:40.946Z,3.36
2022-12-06T09:20:09.178Z,3.32
2022-12-06T09:21:09.030Z,3.45
2022-12-06T09:22:08.913Z,3.44
2022-12-06T09:23:08.930Z,3.36
2022-12-06T09:24:08.906Z,3.34
2022-12-06T09:25:08.917Z,3.23
2022-12-06T09:26:08.890Z,3.31
2022-12-06T09:27:09.863Z,3.32
2022-12-06T09:28:08.871Z,3.42
2022-12-06T09:29:09.472Z,3.44
2022-12-06T09:30:08.890Z,3.53
2022-12-06T09:31:08.935Z,3.55
2022-12-06T09:32:08.840Z,3.40
2022-12-06T09:33:08.842Z,3.48
2022-12-06T09:34:08.853Z,3.37
2022-12-06T09:35:14.920Z,3.36
2022-12-06T09:36:10.846Z,3.40
2022-12-06T09:37:08.811Z,3.50
2022-12-06T09:38:08.817Z,3.56
2022-12-06T09:39:08.800Z,3.53
2022-12-06T09:40:08.810Z,3.63
2022-12-06T09:41:08.797Z,3.48
2022-12-06T09:42:08.809Z,3.48
2022-12-06T09:43:08.776Z,3.58
2022-12-06T09:44:08.748Z,3.45
2022-12-06T09:45:08.776Z,3.51
2022-12-06T09:46:08.785Z,3.53
2022-12-06T09:47:08.789Z,3.45
2022-12-06T09:48:08.783Z,3.47
2022-12-06T09:49:08.792Z,3.53
2022-12-06T09:50:08.762Z,3.58
2022-12-06T09:51:08.697Z,3.59
2022-12-06T09:52:08.781Z,3.62
2022-12-06T09:53:08.687Z,3.53
2022-12-06T09:54:08.691Z,3.56
2022-12-06T09:55:08.684Z,3.55
2022-12-06T09:56:08.680Z,3.50
2022-12-06T09:57:08.715Z,3.51
2022-12-06T09:58:09.423Z,3.56
2022-12-06T09:59:08.643Z,3.47
2022-12-06T10:00:11.816Z,3.48
2022-12-06T10:01:09.630Z,3.56
2022-12-06T10:02:08.690Z,3.62
2022-12-06T10:03:08.730Z,3.69
2022-12-06T10:04:08.613Z,3.53
2022-12-06T10:05:08.611Z,3.63
2022-12-06T10:06:08.593Z,3.63
2022-12-06T10:07:08.580Z,3.58
2022-12-06T10:08:08.775Z,3.65
2022-12-06T10:09:08.652Z,3.63
2022-12-06T10:10:08.566Z,3.60
2022-12-06T10:11:08.992Z,3.62
2022-12-06T10:12:09.556Z,3.62
2022-12-06T10:13:09.557Z,3.58
2022-12-06T10:14:08.582Z,3.59
2022-12-06T10:15:08.529Z,3.55
2022-12-06T10:16:08.662Z,3.65
2022-12-06T10:17:09.607Z,3.62
2022-12-06T10:18:09.587Z,3.58
2022-12-06T10:19:08.512Z,3.62
2022-12-06T10:20:08.529Z,3.62
2022-12-06T10:21:08.519Z,3.68
2022-12-06T10:22:08.474Z,3.56
2022-12-06T10:23:08.487Z,3.65
2022-12-06T10:24:08.468Z,3.70
2022-12-06T10:25:08.499Z,3.65
2022-12-06T10:26:08.449Z,3.65
2022-12-06T10:27:08.501Z,3.69
2022-12-06T10:28:08.429Z,3.70
2022-12-06T10:29:08.415Z,3.73
2022-12-06T10:30:08.430Z,3.74
2022-12-06T10:31:08.558Z,3.76
2022-12-06T10:32:08.429Z,3.74
2022-12-06T10:33:08.403Z,3.68
2022-12-06T10:34:08.404Z,3.76
2022-12-06T10:35:08.383Z,3.76
2022-12-06T10:36:08.421Z,3.66
2022-12-06T10:37:08.347Z,3.78
2022-12-06T10:38:08.365Z,3.68
2022-12-06T10:39:08.376Z,3.69
2022-12-06T10:40:08.349Z,3.66
2022-12-06T10:41:08.422Z,3.66
2022-12-06T10:42:08.372Z,3.65
2022-12-06T10:43:08.325Z,3.62
2022-12-06T10:44:08.358Z,3.62
2022-12-06T10:45:08.346Z,3.53
2022-12-06T10:46:09.292Z,3.59
2022-12-06T10:47:09.372Z,3.62
2022-12-06T10:48:08.314Z,3.58
2022-12-06T10:49:08.253Z,3.69
2022-12-06T10:50:08.290Z,3.53
2022-12-06T10:51:08.266Z,3.65
2022-12-06T10:52:08.272Z,3.66
2022-12-06T10:53:10.917Z,3.70
2022-12-06T10:54:08.254Z,3.74
2022-12-06T10:55:08.211Z,3.73
2022-12-06T10:56:08.325Z,3.78
2022-12-06T10:57:08.212Z,3.81
2022-12-06T10:58:08.238Z,3.84
2022-12-06T10:59:08.256Z,3.77
2022-12-06T11:00:14.710Z,3.68
2022-12-06T11:01:10.351Z,3.70
2022-12-06T11:02:08.225Z,3.68
2022-12-06T11:03:08.176Z,3.66
2022-12-06T11:04:08.163Z,3.78
2022-12-06T11:05:08.170Z,3.70
2022-12-06T11:06:08.207Z,3.63
2022-12-06T11:07:08.153Z,3.74
2022-12-06T11:08:08.222Z,3.68
2022-12-06T11:09:08.113Z,3.70
2022-12-06T11:10:08.108Z,3.83
2022-12-06T11:11:08.102Z,3.77
2022-12-06T11:12:08.091Z,3.76
2022-12-06T11:13:08.105Z,3.88
2022-12-06T11:14:08.108Z,3.88
2022-12-06T11:15:08.153Z,3.91
2022-12-06T11:16:08.124Z,3.80
2022-12-06T11:17:08.063Z,3.80
2022-12-06T11:18:08.120Z,3.81
2022-12-06T11:19:08.185Z,3.77
2022-12-06T11:20:08.031Z,3.86
2022-12-06T11:21:08.100Z,3.84
2022-12-06T11:22:08.007Z,3.78
2022-12-06T11:23:07.999Z,3.80
2022-12-06T11:24:08.023Z,3.74
2022-12-06T11:25:08.009Z,3.81
2022-12-06T11:26:07.986Z,3.88
2022-12-06T11:27:07.981Z,3.74
2022-12-06T11:28:08.011Z,3.86
2022-12-06T11:29:08.021Z,3.92
2022-12-06T11:30:07.956Z,3.83
2022-12-06T11:31:08.029Z,3.83
2022-12-06T11:32:07.978Z,3.95
2022-12-06T11:33:08.010Z,3.86
2022-12-06T11:34:07.997Z,3.94
2022-12-06T11:35:07.976Z,3.99
2022-12-06T11:36:07.915Z,4.01
2022-12-06T11:37:07.915Z,4.04
2022-12-06T11:38:07.913Z,4.08
2022-12-06T11:39:07.907Z,3.98
2022-12-06T11:40:07.911Z,4.08
2022-12-06T11:41:07.945Z,4.08
2022-12-06T11:42:07.896Z,4.08
2022-12-06T11:43:07.889Z,4.10
2022-12-06T11:44:07.903Z,4.06
2022-12-06T11:45:08.093Z,4.08
2022-12-06T11:46:07.872Z,4.08
2022-12-06T11:47:07.943Z,4.16
2022-12-06T11:48:07.841Z,4.10
2022-12-06T11:49:08.037Z,4.13
2022-12-06T11:50:10.192Z,4.19
2022-12-06T11:51:09.848Z,4.13
2022-12-06T11:52:07.812Z,4.16
2022-12-06T11:53:07.836Z,4.14
2022-12-06T11:54:07.786Z,4.05
2022-12-06T11:55:07.795Z,4.16
2022-12-06T11:56:07.762Z,4.22
2022-12-06T11:57:07.751Z,4.19
2022-12-06T11:58:07.780Z,4.16
2022-12-06T11:59:07.760Z,4.24
2022-12-06T12:00:07.750Z,4.14
2022-12-06T12:01:10.035Z,4.14
2022-12-06T12:02:07.756Z,4.20
2022-12-06T12:03:07.906Z,4.06
2022-12-06T12:04:07.696Z,4.19
2022-12-06T12:05:07.703Z,4.16
2022-12-06T12:06:07.704Z,4.08
2022-12-06T12:07:07.756Z,4.06
2022-12-06T12:08:07.749Z,4.01
2022-12-06T12:09:07.675Z,4.05
2022-12-06T12:10:07.679Z,3.94
2022-12-06T12:11:07.707Z,3.92
2022-12-06T12:12:07.709Z,3.88
2022-12-06T12:13:07.704Z,3.95
2022-12-06T12:14:07.616Z,4.05
2022-12-06T12:15:07.660Z,3.91
2022-12-06T12:16:07.705Z,3.98
2022-12-06T12:17:07.667Z,4.01
2022-12-06T12:18:07.601Z,3.99
2022-12-06T12:19:07.622Z,4.05
2022-12-06T12:20:07.617Z,4.04
2022-12-06T12:21:07.606Z,3.94
2022-12-06T12:22:08.344Z,4.05
2022-12-06T12:23:07.570Z,3.98
2022-12-06T12:24:07.703Z,3.96
2022-12-06T12:25:23.352Z,4.01
2022-12-06T12:26:09.541Z,4.02
2022-12-06T12:27:07.533Z,3.96
2022-12-06T12:28:07.550Z,3.98
2022-12-06T12:29:07.554Z,3.96
2022-12-06T12:30:07.554Z,3.98
2022-12-06T12:31:07.529Z,3.99
2022-12-06T12:32:08.206Z,4.02
2022-12-06T12:33:08.101Z,4.12
2022-12-06T12:34:07.535Z,4.05
2022-12-06T12:35:07.531Z,4.05
2022-12-06T12:36:07.539Z,4.10
2022-12-06T12:37:07.478Z,4.13
2022-12-06T12:38:07.509Z,4.05
2022-12-06T12:39:07.462Z,4.12
2022-12-06T12:40:39.527Z,4.20
2022-12-06T12:41:08.143Z,4.14
2022-12-06T12:42:39.380Z,4.10
2022-12-06T12:43:39.440Z,4.13
2022-12-06T12:44:36.368Z,4.14
2022-12-06T12:45:39.365Z,4.22
2022-12-06T12:46:40.145Z,4.23
2022-12-06T12:47:07.540Z,4.14
2022-12-06T12:48:10.197Z,4.05
2022-12-06T12:49:07.487Z,4.12
2022-12-06T12:50:07.779Z,4.10
2022-12-06T12:51:07.538Z,4.10
2022-12-06T12:52:07.494Z,4.12
2022-12-06T12:53:08.449Z,4.13
2022-12-06T12:54:07.488Z,4.13
2022-12-06T12:55:07.486Z,4.17
2022-12-06T12:56:07.828Z,4.10
2022-12-06T12:57:07.703Z,4.22
2022-12-06T12:58:07.603Z,4.20
2022-12-06T12:59:07.631Z,4.17
2022-12-06T13:00:15.172Z,4.13
2022-12-06T13:01:07.892Z,4.16
2022-12-06T13:02:07.908Z,4.14
2022-12-06T13:03:17.950Z,4.08
2022-12-06T13:04:09.567Z,4.16
2022-12-06T13:05:32.084Z,4.08
2022-12-06T13:06:09.861Z,4.20
2022-12-06T13:07:07.432Z,4.12
2022-12-06T13:08:08.830Z,4.10
2022-12-06T13:09:07.550Z,4.19
2022-12-06T13:10:10.872Z,4.19
2022-12-06T13:11:07.409Z,4.20
2022-12-06T13:12:08.483Z,4.13
2022-12-06T13:13:07.408Z,4.17
2022-12-06T13:14:08.462Z,4.19
2022-12-06T13:15:07.330Z,4.17
2022-12-06T13:16:10.525Z,4.16
2022-12-06T13:17:08.507Z,4.14
2022-12-06T13:18:07.552Z,4.22
2022-12-06T13:19:07.245Z,4.16
2022-12-06T13:20:07.263Z,4.16
2022-12-06T13:21:07.467Z,4.22
2022-12-06T13:22:07.253Z,4.22
2022-12-06T13:23:07.279Z,4.20
2022-12-06T13:24:07.388Z,4.22
2022-12-06T13:25:07.400Z,4.30
2022-12-06T13:26:08.956Z,4.24
2022-12-06T13:27:07.280Z,4.30
2022-12-06T13:28:07.571Z,4.23
2022-12-06T13:29:07.340Z,4.22
2022-12-06T13:30:07.322Z,4.31
2022-12-06T13:31:07.329Z,4.40
2022-12-06T13:32:08.247Z,4.38
2022-12-06T13:33:07.170Z,4.23